Barona Mesa (973) Station Data

Red Flag Warning: No
Fire Weather Zone: 250
SDGE Region: Ramona
Lat/Lon: 32.978/-116.78

Observations

Time Wind Speed/Gust Temp(F) RH Fuel Moist Fuel Temp(F) Dewpt(F) Tmax(F) Tmin(F) Accum Precip 10-min Precip SL Press(mb)
6/22 5:00am 142 3 G 5 72° 44% - - 49° 76.5° 67° - - -
6/22 4:50am 149 3 G 5 72° 44% - - 49° 76.5° 67° - - -
6/22 4:40am 154 4 G 5 70° 51% - - 51° 76.5° 67° - - -
6/22 4:30am 145 4 G 5 71° 51% - - 52° 76.5° 67° - - -
6/22 4:20am 144 4 G 5 69° 59% - - 54° 76.5° 67° - - -
6/22 4:10am 152 4 G 5 69° 61% - - 55° 76.5° 67° - - -
6/22 4:00am 156 4 G 4 70° 60% - - 55° 76.5° 67° - - -
6/22 3:50am 165 4 G 4 69° 62% - - 56° 76.5° 67° - - -
6/22 3:40am 168 3 G 4 68° 70% - - 58° 76.5° 67° - - -
6/22 3:30am 145 2 G 3 71° 55% - - 54° 76.5° 67.7° - - -
6/22 3:20am 138 2 G 3 72° 53% - - 54° 76.5° 67.7° - - -
6/22 3:10am 151 3 G 4 71° 57% - - 55° 76.5° 67.7° - - -
6/22 3:00am 161 4 G 5 70° 69% - - 59° 76.5° 67.7° - - -
6/22 2:50am 157 4 G 5 69° 73% - - 60° 76.5° 67.7° - - -
6/22 2:40am 152 5 G 6 68° 75% - - 60° 76.5° 67.7° - - -
6/22 2:30am 150 5 G 6 69° 74% - - 60° 76.5° 67.8° - - -
6/22 2:20am 156 5 G 6 69° 72% - - 60° 76.5° 67.8° - - -
6/22 2:10am 165 5 G 6 69° 73% - - 60° 76.5° 67.8° - - -
6/22 2:00am 159 5 G 6 68° 75% - - 60° 76.5° 67.8° - - -
6/22 1:50am 155 5 G 5 68° 74% - - 60° 76.5° 67.8° - - -
6/22 1:40am 155 5 G 5 69° 73% - - 60° 76.5° 68.3° - - -
6/22 1:30am 162 5 G 5 70° 71% - - 60° 76.5° 68.8° - - -
6/22 1:20am 157 5 G 5 70° 70% - - 60° 76.5° 69.8° - - -
6/22 1:10am 156 4 G 5 70° 69% - - 60° 76.5° 69.9° - - -
6/22 1:00am 162 4 G 5 71° 67% - - 60° 76.5° 70.5° - - -
6/22 12:50am 153 4 G 4 73° 63% - - 60° 76.5° 71.2° - - -
6/22 12:40am 157 3 G 4 74° 60% - - 59° 76.5° 71.2° - - -
6/22 12:30am 120 3 G 4 76° 51% - - 56° 76.5° 71.2° - - -
6/22 12:20am 78 2 G 4 75° 53% - - 57° 76° 71.2° - - -
6/22 12:10am 147 3 G 4 73° 63% - - 60° 73.7° 71.2° - - -
6/22 12:00am 159 4 G 5 71° 68% - - 60° 100° 70.6° - - -
6/21 11:50pm 152 3 G 3 72° 67% - - 60° 100° 71° - - -
6/21 11:40pm 146 2 G 3 72° 66% - - 60° 100° 71.8° - - -
6/21 11:30pm 127 0 G 0 72° 65% - - 60° 100° 71.9° - - -
6/21 11:20pm 127 1 G 2 74° 63% - - 60° 100° 73° - - -
6/21 11:10pm 127 1 G 2 74° 63% - - 60° 100° 73.3° - - -
6/21 11:00pm 131 2 G 2 74° 62% - - 60° 100° 73.3° - - -
6/21 10:50pm 129 2 G 3 74° 63% - - 60° 100° 73.3° - - -
6/21 10:40pm 130 3 G 3 74° 62% - - 60° 100° 73.4° - - -
6/21 10:30pm 139 3 G 3 75° 60% - - 60° 100° 73.5° - - -
6/21 10:20pm 34 1 G 4 76° 58% - - 60° 100° 75° - - -
6/21 10:10pm 354 1 G 2 76° 58% - - 60° 100° 75.1° - - -
6/21 10:00pm 2 2 G 2 76° 57% - - 60° 100° 75.1° - - -
6/21 9:50pm 356 1 G 2 77° 55% - - 60° 100° 76.3° - - -
6/21 9:40pm 342 1 G 2 78° 54% - - 60° 100° 77° - - -
6/21 9:30pm 323 1 G 2 78° 54% - - 60° 100° 77.1° - - -
6/21 9:20pm 358 2 G 3 78° 53% - - 60° 100° 77.1° - - -
6/21 9:10pm 354 2 G 3 78° 54% - - 60° 100° 77.1° - - -
6/21 9:00pm 346 2 G 3 78° 54% - - 60° 100° 77.1° - - -
6/21 8:50pm 341 3 G 3 79° 53% - - 60° 100° 77.1° - - -
6/21 8:40pm 336 4 G 5 79° 52% - - 60° 100° 77.1° - - -
6/21 8:30pm 331 4 G 5 80° 50% - - 60° 100° 77.1° - - -
6/21 8:20pm 330 3 G 4 81° 48% - - 60° 100° 77.1° - - -
6/21 8:10pm 307 3 G 4 82° 48% - - 60° 100° 77.1° - - -
6/21 8:00pm 286 4 G 5 82° 47% - - 60° 100° 77.1° - - -
6/21 7:50pm 280 4 G 4 82° 47% - - 60° 100° 77.1° - - -
6/21 7:40pm 283 4 G 5 83° 46% - - 60° 100° 77.1° - - -
6/21 7:30pm 289 4 G 5 84° 44% - - 60° 100° 77.1° - - -
6/21 7:20pm 286 4 G 5 85° 42% - - 60° 100° 77.1° - - -
6/21 7:10pm 285 5 G 7 86° 41% - - 59° 100° 77.1° - - -
6/21 7:00pm 294 5 G 8 87° 39% - - 59° 100° 77.1° - - -
6/21 6:50pm 292 6 G 9 88° 38% - - 59° 100° 77.1° - - -
6/21 5:50pm 285 6 G 9 91° 33% - - 58° 100° 77.1° - - -
6/21 5:40pm 291 7 G 10 91° 33% - - 57° 100° 77.1° - - -
6/21 5:30pm 286 6 G 12 91° 32% - - 57° 100° 77.1° - - -
6/21 5:20pm 293 7 G 11 92° 32% - - 57° 100° 77.1° - - -
6/21 5:10pm 292 8 G 12 91° 32% - - 57° 100° 77.1° - - -
6/21 5:00pm 291 8 G 13 92° 32% - - 57° 100° 77.1° - - -
6/21 4:50pm 285 8 G 11 92° 31% - - 57° 100° 77.1° - - -
6/21 4:40pm 288 8 G 11 92° 30% - - 57° 100° 77.1° - - -
6/21 4:30pm 294 7 G 12 93° 30% - - 57° 100° 77.1° - - -
6/21 4:20pm 290 8 G 13 93° 29% - - 57° 100° 77.1° - - -
6/21 4:10pm 293 7 G 12 94° 29% - - 57° 100° 77.1° - - -
6/21 4:00pm 290 8 G 12 94° 29% - - 57° 100° 77.1° - - -
6/21 3:50pm 281 8 G 11 94° 28% - - 56° 100° 77.1° - - -
6/21 3:40pm 296 9 G 13 95° 28% - - 56° 100° 77.1° - - -
6/21 3:30pm 278 8 G 12 95° 28% - - 57° 100° 77.1° - - -
6/21 3:20pm 286 8 G 12 96° 27% - - 56° 100° 77.1° - - -
6/21 3:10pm 292 8 G 14 97° 27% - - 57° 100° 77.1° - - -
6/21 3:00pm 261 8 G 14 97° 27% - - 57° 100° 77.1° - - -
6/21 2:50pm 280 8 G 15 97° 27% - - 57° 100° 77.1° - - -
6/21 2:40pm 283 8 G 12 97° 26% - - 56° 100° 77.1° - - -
6/21 2:30pm 267 8 G 14 97° 25% - - 56° 100° 77.1° - - -
6/21 2:20pm 280 8 G 13 97° 25% - - 55° 100° 77.1° - - -
6/21 2:10pm 285 8 G 15 98° 23% - - 54° 100° 77.1° - - -
6/21 2:00pm 277 8 G 13 98° 22% - - 53° 100° 77.1° - - -
6/21 1:50pm 285 9 G 15 98° 24% - - 54° 100° 77.1° - - -
6/21 1:40pm 292 9 G 14 98° 23% - - 53° 100° 77.1° - - -
6/21 1:30pm 286 9 G 14 98° 23% - - 54° 100° 77.1° - - -
6/21 1:20pm 283 9 G 14 98° 22% - - 52° 100° 77.1° - - -
6/21 1:10pm 286 7 G 12 98° 20% - - 51° 100° 77.1° - - -
6/21 1:00pm 297 8 G 12 98° 20% - - 50° 100° 77.1° - - -
6/21 12:50pm 297 7 G 12 98° 20% - - 50° 100° 77.1° - - -
6/21 12:40pm 297 7 G 12 98° 20% - - 50° 100° 77.1° - - -
6/21 12:30pm 291 8 G 12 98° 20% - - 50° 100° 77.1° - - -
6/21 12:20pm 294 7 G 12 97° 20% - - 49° 100° 77.1° - - -
6/21 12:10pm 285 6 G 10 98° 19% - - 48° 100° 77.1° - - -
6/21 12:00pm 293 6 G 11 97° 19% - - 48° 100° 77.1° - - -
6/21 11:50am 280 5 G 10 98° 19% - - 48° 100° 77.1° - - -
6/21 11:40am 287 4 G 9 99° 19% - - 49° 99.5° 77.1° - - -
6/21 11:30am 252 3 G 6 98° 20% - - 51° 99.3° 77.1° - - -
6/21 11:20am 203 3 G 5 97° 23% - - 53° 98.5° 77.1° - - -
6/21 11:10am 120 3 G 7 96° 24% - - 53° 97.1° 77.1° - - -
6/21 11:00am 136 4 G 7 95° 25% - - 53° 95.5° 77.1° - - -
6/21 10:50am 149 4 G 6 93° 26% - - 54° 94.2° 77.1° - - -
6/21 10:40am 133 4 G 7 93° 26% - - 53° 94.2° 77.1° - - -
6/21 10:30am 130 3 G 6 93° 25% - - 52° 94.2° 77.1° - - -
6/21 10:20am 125 2 G 5 92° 26% - - 52° 93.4° 77.1° - - -
6/21 10:10am 138 3 G 6 91° 28% - - 53° 91.5° 77.1° - - -
6/21 10:00am 139 3 G 5 89° 28% - - 52° 90.8° 77.1° - - -
6/21 9:50am 139 4 G 6 89° 29% - - 53° 89.8° 77.1° - - -
6/21 9:40am 151 3 G 6 89° 29% - - 53° 89.8° 77.1° - - -
6/21 9:30am 141 3 G 5 89° 30% - - 53° 89.7° 77.1° - - -
6/21 9:20am 143 3 G 5 88° 31% - - 53° 89.7° 77.1° - - -
6/21 9:10am 137 3 G 5 88° 32% - - 54° 89.7° 77.1° - - -
6/21 9:00am 144 2 G 5 89° 27% - - 51° 89.7° 77.1° - - -
6/21 8:50am 139 2 G 4 89° 26% - - 49° 89.7° 77.1° - - -
6/21 8:40am 5 1 G 2 89° 20% - - 42° 89.4° 77.1° - - -
6/21 8:30am 127 1 G 2 87° 23% - - 45° 88.5° 77.1° - - -
6/21 8:20am 105 1 G 3 86° 23% - - 44° 87.2° 77.1° - - -
6/21 8:10am 150 1 G 3 84° 25% - - 45° 85.1° 77.1° - - -
6/21 8:00am 151 2 G 4 83° 26% - - 45° 83.9° 77.1° - - -
6/21 7:50am 147 2 G 3 82° 28% - - 46° 82.9° 77.1° - - -
6/21 7:40am 160 2 G 3 82° 28% - - 46° 82.7° 77.1° - - -
6/21 7:30am 153 2 G 3 81° 27% - - 44° 81.9° 77.1° - - -
6/21 7:20am 157 1 G 3 81° 27% - - 43° 81.9° 77.1° - - -
6/21 7:10am 158 3 G 4 79° 29% - - 44° 80.4° 77.1° - - -
6/21 7:00am 160 4 G 4 79° 30% - - 45° 80.4° 77.1° - - -
6/21 6:50am 167 4 G 5 78° 30% - - 44° 80.4° 77.1° - - -
6/21 6:40am 165 3 G 4 79° 29% - - 44° 80.4° 77.1° - - -
6/21 6:30am 158 3 G 4 79° 29% - - 43° 80.4° 77.1° - - -
6/21 6:20am 148 3 G 4 79° 29% - - 44° 80.4° 77.1° - - -
6/21 6:10am 147 3 G 5 79° 29% - - 44° 80.4° 77.1° - - -
6/21 6:00am 163 4 G 5 78° 32% - - 45° 80.4° 77.1° - - -
6/21 5:50am 152 4 G 5 78° 31% - - 46° 80.4° 77.1° - - -
6/21 5:40am 160 4 G 5 78° 33% - - 47° 80.4° 77.1° - - -
6/21 5:30am 157 5 G 5 78° 33% - - 47° 80.4° 77.2° - - -
6/21 5:20am 143 4 G 5 78° 34% - - 48° 80.4° 77.2° - - -
6/21 5:10am 162 4 G 5 78° 36% - - 49° 80.4° 77.2° - - -
6/21 5:00am 164 4 G 5 78° 35% - - 49° 80.4° 77.2° - - -
6/21 4:50am 166 3 G 4 78° 36% - - 49° 80.4° 77.2° - - -
6/21 4:40am 167 4 G 5 78° 37% - - 50° 80.4° 77.2° - - -
6/21 4:30am 168 4 G 5 78° 37% - - 50° 80.4° 77.2° - - -
6/21 4:20am 158 3 G 5 78° 38% - - 50° 80.4° 77.2° - - -
6/21 4:10am 153 3 G 5 78° 38% - - 51° 80.4° 77.2° - - -
6/21 4:00am 154 4 G 5 78° 39% - - 51° 80.4° 77.2° - - -
6/21 3:50am 144 3 G 4 79° 38% - - 51° 80.4° 77.5° - - -
6/21 3:40am 135 3 G 4 79° 38% - - 51° 80.4° 77.5° - - -
6/21 3:30am 156 3 G 4 79° 38% - - 51° 80.4° 77.5° - - -
6/21 3:20am 162 3 G 4 79° 38% - - 51° 80.4° 77.5° - - -
6/21 3:10am 160 3 G 4 79° 39% - - 52° 80.4° 77.5° - - -
6/21 3:00am 155 3 G 4 79° 38% - - 52° 80.4° 77.5° - - -
6/21 2:50am 156 3 G 4 79° 39% - - 52° 80.4° 77.5° - - -
6/21 2:40am 151 3 G 4 79° 39% - - 52° 80.4° 77.5° - - -
6/21 2:30am 166 3 G 4 78° 40% - - 52° 80.4° 77.5° - - -
6/21 2:20am 161 4 G 5 78° 40% - - 52° 80.4° 77.5° - - -
6/21 2:10am 158 4 G 5 79° 39% - - 52° 80.4° 78° - - -
6/21 2:00am 163 4 G 4 79° 38% - - 52° 80.4° 78.4° - - -
6/21 1:50am 167 3 G 4 79° 38% - - 52° 80.4° 78.4° - - -
6/21 1:40am 164 3 G 4 79° 39% - - 52° 80.4° 78.4° - - -
6/21 1:30am 165 4 G 4 79° 39% - - 52° 80.4° 78.4° - - -
6/21 1:20am 161 4 G 4 79° 39% - - 52° 80.4° 78.4° - - -
6/21 1:10am 164 4 G 4 79° 39% - - 52° 80.4° 78.4° - - -
6/21 1:00am 158 4 G 4 79° 39% - - 52° 80.4° 78.4° - - -
6/21 12:50am 147 4 G 4 79° 39% - - 52° 80.4° 78.7° - - -
6/21 12:40am 155 4 G 5 79° 39% - - 52° 80.4° 78.8° - - -
6/21 12:30am 152 4 G 6 80° 39% - - 52° 80.4° 78.8° - - -
6/21 12:20am 160 5 G 6 79° 41% - - 53° 79.8° 78.8° - - -
6/21 12:10am 155 4 G 5 79° 41% - - 54° 79.8° 78.8° - - -
6/21 12:00am 147 4 G 5 80° 40% - - 54° 102.3° 72.5° - - -
6/20 11:50pm 157 3 G 4 80° 40% - - 53° 102.3° 72.5° - - -
6/20 11:40pm 151 4 G 5 80° 40% - - 53° 102.3° 72.5° - - -
6/20 11:30pm 143 4 G 5 80° 40% - - 54° 102.3° 72.5° - - -
6/20 11:20pm 149 4 G 5 80° 42% - - 55° 102.3° 72.5° - - -
6/20 11:10pm 145 5 G 6 81° 41% - - 55° 102.3° 72.5° - - -
6/20 11:00pm 135 4 G 6 81° 41% - - 55° 102.3° 72.5° - - -
6/20 10:50pm 138 3 G 5 81° 41% - - 56° 102.3° 72.5° - - -
6/20 10:40pm 130 3 G 4 82° 41% - - 56° 102.3° 72.5° - - -
6/20 10:30pm 127 4 G 4 82° 41% - - 56° 102.3° 72.5° - - -
6/20 10:20pm 114 4 G 5 82° 41% - - 56° 102.3° 72.5° - - -
6/20 10:10pm 116 4 G 5 82° 41% - - 56° 102.3° 72.5° - - -
6/20 10:00pm 104 5 G 6 82° 41% - - 56° 102.3° 72.5° - - -
6/20 9:50pm 99 5 G 6 82° 40% - - 55° 102.3° 72.5° - - -
6/20 9:40pm 97 4 G 5 83° 39% - - 55° 102.3° 72.5° - - -
6/20 9:30pm 95 3 G 4 84° 38% - - 55° 102.3° 72.5° - - -
6/20 9:20pm 82 2 G 4 85° 32% - - 51° 102.3° 72.5° - - -
6/20 9:10pm 80 1 G 2 85° 30% - - 50° 102.3° 72.5° - - -
6/20 9:00pm 358 1 G 1 85° 29% - - 49° 102.3° 72.5° - - -
6/20 8:50pm 34 1 G 2 84° 30% - - 50° 102.3° 72.5° - - -
6/20 8:40pm 15 1 G 2 84° 31% - - 50° 102.3° 72.5° - - -
6/20 8:30pm 302 2 G 2 84° 31% - - 50° 102.3° 72.5° - - -
6/20 8:20pm 283 3 G 5 85° 30% - - 51° 102.3° 72.5° - - -
6/20 8:10pm 289 5 G 7 87° 29% - - 51° 102.3° 72.5° - - -
6/20 8:00pm 294 4 G 6 88° 28% - - 51° 102.3° 72.5° - - -
6/20 7:50pm 310 2 G 3 88° 30% - - 52° 102.3° 72.5° - - -
6/20 7:40pm 17 1 G 3 88° 30% - - 53° 102.3° 72.5° - - -
6/20 7:30pm 311 2 G 5 88° 31% - - 54° 102.3° 72.5° - - -
6/20 7:20pm 317 4 G 6 89° 30% - - 53° 102.3° 72.5° - - -
6/20 7:10pm 310 4 G 7 90° 29% - - 53° 102.3° 72.5° - - -
6/20 7:00pm 307 5 G 8 90° 28% - - 53° 102.3° 72.5° - - -
6/20 6:50pm 314 7 G 9 91° 28% - - 53° 102.3° 72.5° - - -
6/20 6:40pm 307 6 G 9 92° 26% - - 52° 102.3° 72.5° - - -
6/20 6:30pm 307 7 G 10 92° 27% - - 53° 102.3° 72.5° - - -
6/20 6:20pm 304 7 G 11 92° 27% - - 53° 102.3° 72.5° - - -
6/20 6:10pm 300 7 G 13 93° 26% - - 53° 102.3° 72.5° - - -
6/20 6:00pm 297 8 G 13 93° 26% - - 54° 102.3° 72.5° - - -
6/20 5:50pm 301 9 G 13 93° 27% - - 54° 102.3° 72.5° - - -